Makaweli, Hawaii
Current Conditions -  °F | °C
As of 9:56 AM on Wednesday 26 Nov 2014 (Local Time) from PHBK Reporting Station
Overcast Overcast  
Wind Chill: 77°   Ceiling: 5000
Heat Index: 79°   Visibility: 10mi
Dew Point: 60°   Wind: 10mph
Humidity: 56%   Direction: 10°N
Pressure: 30.11"   Gusts: NA
Location:  21.9°N, 159.65°W
Report Text: PHBK 261956Z AUTO 01009KT 10SM OVC050 25/16 A3011 RMK AO2 SLP199 T02500156
Loading
Personal Weather Stations






























Interactive Weather Map New forecast layout! Learn more

10-Day Weather Forecast

Advertisements
Track Severe Weather on mobile